Time,TemperatureF,DewpointF,PressureIn,WindDirection,WindDirectionDegrees,WindSpeedMPH,WindSpeedGustMPH,Humidity,HourlyPrecipIn,Conditions,Clouds,dailyrainin,SoftwareType,DateUTC
2013-04-01 00:00:00,50.6,38.8,29.97,SSE,148,2.0,6.0,64,0.00,RA,RA,0.00,WeatherDisplay:10.37,2013-04-01 05:00:00,
2013-04-01 00:06:00,50.6,38.8,29.97,SSE,159,5.0,6.0,64,0.00,RA,RA,0.00,WeatherDisplay:10.37,2013-04-01 05:06:00,
2013-04-01 00:12:00,50.4,39.1,29.96,SSE,154,3.0,6.0,65,0.00,FEW,FEW,0.00,WeatherDisplay:10.37,2013-04-01 05:12:00,
2013-04-01 00:18:00,50.0,39.0,29.96,SSE,149,2.0,6.0,66,0.00,FEW,FEW,0.00,WeatherDisplay:10.37,2013-04-01 05:18:00,
2013-04-01 00:24:00,49.9,38.9,29.96,SSE,152,5.0,6.0,66,0.00,FEW,FEW,0.00,WeatherDisplay:10.37,2013-04-01 05:24:00,
2013-04-01 00:30:00,49.7,39.1,29.96,SSE,149,3.0,5.0,67,0.00,FEW,FEW,0.00,WeatherDisplay:10.37,2013-04-01 05:30:00,
2013-04-01 00:36:00,49.7,39.1,29.96,SSE,152,2.0,7.0,67,0.00,FEW,FEW,0.00,WeatherDisplay:10.37,2013-04-01 05:36:00,
2013-04-01 00:42:00,49.5,39.0,29.96,SSE,152,1.0,2.0,67,0.00,FEW,FEW,0.00,WeatherDisplay:10.37,2013-04-01 05:42:00,
2013-04-01 00:48:00,49.3,38.8,29.96,SSE,153,2.0,3.0,67,0.00,FEW,FEW,0.00,WeatherDisplay:10.37,2013-04-01 05:48:00,
2013-04-01 00:54:00,49.2,38.7,29.96,SSE,148,1.0,5.0,67,0.00,FEW,FEW,0.00,WeatherDisplay:10.37,2013-04-01 05:54:00,
2013-04-01 01:00:00,48.8,38.7,29.96,SE,136,0.0,0.0,68,0.00,FEW,FEW,0.00,WeatherDisplay:10.37,2013-04-01 06:00:00,
2013-04-01 01:06:00,48.4,38.7,29.97,ESE,119,0.0,0.0,69,0.00,FEW,FEW,0.00,WeatherDisplay:10.37,2013-04-01 06:06:00,
2013-04-01 01:12:00,48.2,38.5,29.97,SE,146,1.0,3.0,69,0.00,FEW,FEW,0.00,WeatherDisplay:10.37,2013-04-01 06:12:00,
2013-04-01 01:18:00,48.2,38.5,29.96,SSE,164,0.0,0.0,69,0.00,FEW,FEW,0.00,WeatherDisplay:10.37,2013-04-01 06:18:00,
2013-04-01 01:24:00,47.7,38.4,29.96,SE,137,0.0,1.0,70,0.00,FEW,FEW,0.00,WeatherDisplay:10.37,2013-04-01 06:24:00,
2013-04-01 01:27:00,47.4,38.4,29.97,SE,132,0.0,0.0,71,0.00,FEW,FEW,0.00,WeatherDisplay:10.37,2013-04-01 06:27:00,
2013-04-01 01:33:00,46.7,38.2,29.97,ESE,116,0.0,0.0,72,0.00,FEW,FEW,0.00,WeatherDisplay:10.37,2013-04-01 06:33:00,
2013-04-01 01:39:00,46.3,38.1,29.97,ESE,112,0.0,0.0,73,0.00,FEW,FEW,0.00,WeatherDisplay:10.37,2013-04-01 06:39:00,
2013-04-01 01:45:00,46.5,39.0,29.97,SE,131,1.0,4.0,75,0.00,FEW,FEW,0.00,WeatherDisplay:10.37,2013-04-01 06:45:00,
2013-04-01 01:51:00,47.2,38.6,29.97,SSE,157,2.0,4.0,72,0.00,FEW,FEW,0.00,WeatherDisplay:10.37,2013-04-01 06:51:00,
2013-04-01 01:57:00,47.2,38.6,29.97,SSE,163,3.0,5.0,72,0.00,FEW,FEW,0.00,WeatherDisplay:10.37,2013-04-01 06:57:00,
2013-04-01 02:03:00,47.1,38.2,29.97,SSE,149,0.0,2.0,71,0.00,FEW,FEW,0.00,WeatherDisplay:10.37,2013-04-01 07:03:00,
2013-04-01 02:09:00,47.1,38.5,29.97,SSE,163,3.0,4.0,72,0.00,FEW,FEW,0.00,WeatherDisplay:10.37,2013-04-01 07:09:00,
2013-04-01 02:15:00,47.2,38.6,29.97,SSE,151,5.0,6.0,72,0.00,FEW,FEW,0.00,WeatherDisplay:10.37,2013-04-01 07:15:00,
2013-04-01 02:21:00,47.3,38.3,29.97,SSE,148,3.0,5.0,71,0.00,FEW,FEW,0.00,WeatherDisplay:10.37,2013-04-01 07:21:00,
2013-04-01 02:27:00,47.3,38.3,29.97,SSE,152,3.0,7.0,71,0.00,FEW,FEW,0.00,WeatherDisplay:10.37,2013-04-01 07:27:00,
2013-04-01 02:33:00,47.7,38.4,29.97,SE,145,6.0,7.0,70,0.00,FEW,FEW,0.00,WeatherDisplay:10.37,2013-04-01 07:33:00,
2013-04-01 02:39:00,48.3,38.6,29.96,SE,146,2.0,5.0,69,0.00,FEW,FEW,0.00,WeatherDisplay:10.37,2013-04-01 07:39:00,
2013-04-01 02:45:00,47.9,38.5,29.96,South,170,0.0,2.0,70,0.00,FEW,FEW,0.00,WeatherDisplay:10.37,2013-04-01 07:45:00,
2013-04-01 02:51:00,47.2,38.2,29.97,NNE,17,0.0,0.0,71,0.00,FEW,FEW,0.00,WeatherDisplay:10.37,2013-04-01 07:51:00,
2013-04-01 02:57:00,46.6,38.0,29.97,ENE,67,0.0,0.0,72,0.00,FEW,FEW,0.00,WeatherDisplay:10.37,2013-04-01 07:57:00,
2013-04-01 03:03:00,46.3,38.1,29.98,East,86,7.0,8.0,73,0.00,FEW,FEW,0.00,WeatherDisplay:10.37,2013-04-01 08:03:00,
2013-04-01 03:09:00,46.9,38.7,29.98,East,96,6.0,7.0,73,0.00,FEW,FEW,0.00,WeatherDisplay:10.37,2013-04-01 08:09:00,
2013-04-01 03:15:00,47.2,38.6,30.00,East,99,3.0,5.0,72,0.00,FEW,FEW,0.00,WeatherDisplay:10.37,2013-04-01 08:15:00,
2013-04-01 03:21:00,47.2,38.6,30.00,ENE,67,3.0,4.0,72,0.00,FEW,FEW,0.00,WeatherDisplay:10.37,2013-04-01 08:21:00,
2013-04-01 03:27:00,47.5,38.9,30.02,North,360,1.0,2.0,72,0.00,FEW,FEW,0.00,WeatherDisplay:10.37,2013-04-01 08:27:00,
2013-04-01 03:33:00,47.5,38.9,30.02,NNW,330,3.0,7.0,72,0.00,FEW,FEW,0.00,WeatherDisplay:10.37,2013-04-01 08:33:00,
2013-04-01 03:39:00,47.2,38.6,30.04,North,8,1.0,2.0,72,0.00,FEW,FEW,0.00,WeatherDisplay:10.37,2013-04-01 08:39:00,
2013-04-01 03:45:00,47.2,38.9,30.04,North,2,3.0,4.0,73,0.00,FEW,FEW,0.00,WeatherDisplay:10.37,2013-04-01 08:45:00,
2013-04-01 03:51:00,46.8,39.3,30.05,North,349,2.0,3.0,75,0.00,FEW,FEW,0.00,WeatherDisplay:10.37,2013-04-01 08:51:00,
2013-04-01 03:57:00,46.6,39.1,30.05,North,350,2.0,3.0,75,0.00,FEW,FEW,0.00,WeatherDisplay:10.37,2013-04-01 08:57:00,
2013-04-01 04:03:00,46.3,38.8,30.05,NNE,15,1.0,4.0,75,0.00,FEW,FEW,0.00,WeatherDisplay:10.37,2013-04-01 09:03:00,
2013-04-01 04:09:00,46.3,38.8,30.05,North,2,2.0,3.0,75,0.00,FEW,FEW,0.00,WeatherDisplay:10.37,2013-04-01 09:09:00,
2013-04-01 04:15:00,46.2,38.7,30.05,NNE,33,5.0,7.0,75,0.00,FEW,FEW,0.00,WeatherDisplay:10.37,2013-04-01 09:15:00,
2013-04-01 04:21:00,46.1,38.6,30.05,NE,53,6.0,8.0,75,0.00,FEW,FEW,0.00,WeatherDisplay:10.37,2013-04-01 09:21:00,
2013-04-01 04:27:00,45.9,38.4,30.07,East,83,15.0,15.0,75,0.00,FEW,FEW,0.00,WeatherDisplay:10.37,2013-04-01 09:27:00,
2013-04-01 04:33:00,45.4,36.9,30.07,East,96,9.0,15.0,72,0.00,FEW,FEW,0.00,WeatherDisplay:10.37,2013-04-01 09:33:00,
2013-04-01 04:39:00,45.0,35.8,30.08,East,98,9.0,17.0,70,0.00,FEW,FEW,0.00,WeatherDisplay:10.37,2013-04-01 09:39:00,
2013-04-01 04:45:00,44.6,35.0,30.08,East,81,8.0,10.0,69,0.00,FEW,FEW,0.00,WeatherDisplay:10.37,2013-04-01 09:45:00,
2013-04-01 04:51:00,44.4,34.1,30.08,East,93,8.0,12.0,67,0.00,FEW,FEW,0.00,WeatherDisplay:10.37,2013-04-01 09:51:00,
2013-04-01 04:57:00,43.9,33.6,30.08,East,91,10.0,19.0,67,0.00,FEW,FEW,0.00,WeatherDisplay:10.37,2013-04-01 09:57:00,
2013-04-01 05:03:00,43.6,33.7,30.09,East,83,6.0,9.0,68,0.00,FEW,FEW,0.00,WeatherDisplay:10.37,2013-04-01 10:03:00,
2013-04-01 05:09:00,43.4,33.5,30.09,East,89,7.0,16.0,68,0.00,FEW,FEW,0.00,WeatherDisplay:10.37,2013-04-01 10:09:00,
2013-04-01 05:15:00,42.8,33.0,30.10,ENE,64,6.0,9.0,68,0.00,FEW,FEW,0.00,WeatherDisplay:10.37,2013-04-01 10:15:00,
2013-04-01 05:21:00,42.7,32.8,30.10,ENE,71,7.0,10.0,68,0.00,FEW,FEW,0.00,WeatherDisplay:10.37,2013-04-01 10:21:00,
2013-04-01 05:27:00,42.3,33.2,30.11,ESE,105,7.0,10.0,70,0.00,FEW,FEW,0.00,WeatherDisplay:10.37,2013-04-01 10:27:00,
2013-04-01 05:33:00,41.8,33.1,30.11,East,95,6.0,16.0,71,0.00,FEW,FEW,0.00,WeatherDisplay:10.37,2013-04-01 10:33:00,
2013-04-01 05:39:00,41.5,33.2,30.12,ENE,69,6.0,16.0,72,0.00,FEW,FEW,0.00,WeatherDisplay:10.37,2013-04-01 10:39:00,
2013-04-01 05:45:00,41.2,32.8,30.12,East,83,9.0,16.0,72,0.00,FEW,FEW,0.00,WeatherDisplay:10.37,2013-04-01 10:45:00,
2013-04-01 05:51:00,40.9,32.9,30.12,East,94,9.0,13.0,73,0.00,FEW,FEW,0.00,WeatherDisplay:10.37,2013-04-01 10:51:00,
2013-04-01 05:57:00,40.7,33.4,30.12,East,97,8.0,10.0,75,0.00,FEW,FEW,0.00,WeatherDisplay:10.37,2013-04-01 10:57:00,
2013-04-01 06:03:00,40.5,33.2,30.13,East,84,10.0,15.0,75,0.00,FEW,FEW,0.00,WeatherDisplay:10.37,2013-04-01 11:03:00,
2013-04-01 06:09:00,40.3,33.3,30.13,ENE,62,7.0,19.0,76,0.00,FEW,FEW,0.00,WeatherDisplay:10.37,2013-04-01 11:09:00,
2013-04-01 06:15:00,40.2,33.2,30.14,ENE,62,9.0,16.0,76,0.00,FEW,FEW,0.00,WeatherDisplay:10.37,2013-04-01 11:15:00,
2013-04-01 06:21:00,40.1,33.4,30.14,ENE,65,7.0,14.0,77,0.00,FEW,FEW,0.00,WeatherDisplay:10.37,2013-04-01 11:21:00,
2013-04-01 06:27:00,39.9,34.0,30.14,East,91,9.0,14.0,79,0.00,FEW,FEW,0.00,WeatherDisplay:10.37,2013-04-01 11:27:00,
2013-04-01 06:33:00,39.6,33.6,30.14,East,87,8.0,14.0,79,0.00,FEW,FEW,0.00,WeatherDisplay:10.37,2013-04-01 11:33:00,
2013-04-01 06:39:00,39.6,33.9,30.15,ENE,75,8.0,14.0,80,0.00,FEW,FEW,0.00,WeatherDisplay:10.37,2013-04-01 11:39:00,
2013-04-01 06:45:00,39.2,33.8,30.15,ENE,77,8.0,15.0,81,0.00,FEW,FEW,0.00,WeatherDisplay:10.37,2013-04-01 11:45:00,
2013-04-01 06:51:00,39.1,34.0,30.15,NE,56,5.0,10.0,82,0.00,FEW,FEW,0.00,WeatherDisplay:10.37,2013-04-01 11:51:00,
2013-04-01 06:57:00,38.7,33.6,30.15,NE,43,9.0,14.0,82,0.00,FEW,FEW,0.00,WeatherDisplay:10.37,2013-04-01 11:57:00,
2013-04-01 07:03:00,38.5,34.0,30.15,NNE,33,6.0,9.0,84,0.00,SCT,SCT,0.00,WeatherDisplay:10.37,2013-04-01 12:03:00,
2013-04-01 07:09:00,38.3,34.1,30.15,ENE,73,7.0,10.0,85,0.00,SCT,SCT,0.00,WeatherDisplay:10.37,2013-04-01 12:09:00,
2013-04-01 07:15:00,38.3,34.4,30.16,ENE,57,7.0,9.0,86,0.00,SCT,SCT,0.00,WeatherDisplay:10.37,2013-04-01 12:15:00,
2013-04-01 07:21:00,38.2,34.6,30.16,NNE,25,6.0,7.0,87,0.00,SCT,SCT,0.00,WeatherDisplay:10.37,2013-04-01 12:21:00,
2013-04-01 07:27:00,38.2,34.6,30.17,East,87,7.0,12.0,87,0.00,SCT,SCT,0.00,WeatherDisplay:10.37,2013-04-01 12:27:00,
2013-04-01 07:33:00,38.2,34.9,30.17,East,90,10.0,16.0,88,0.00,SCT,SCT,0.00,WeatherDisplay:10.37,2013-04-01 12:33:00,
2013-04-01 07:39:00,38.2,34.9,30.17,East,90,7.0,13.0,88,0.00,SCT,SCT,0.00,WeatherDisplay:10.37,2013-04-01 12:39:00,
2013-04-01 07:45:00,38.3,35.0,30.17,East,86,8.0,12.0,88,0.00,SCT,SCT,0.00,WeatherDisplay:10.37,2013-04-01 12:45:00,
2013-04-01 07:51:00,38.5,35.2,30.18,ENE,72,7.0,14.0,88,0.00,SCT,SCT,0.00,WeatherDisplay:10.37,2013-04-01 12:51:00,
2013-04-01 07:57:00,38.7,35.4,30.18,East,88,9.0,14.0,88,0.00,SCT,SCT,0.00,WeatherDisplay:10.37,2013-04-01 12:57:00,
2013-04-01 08:03:00,38.9,35.6,30.18,East,97,8.0,12.0,88,0.00,BKN,BKN,0.00,WeatherDisplay:10.37,2013-04-01 13:03:00,
2013-04-01 08:09:00,39.1,35.8,30.18,East,84,10.0,16.0,88,0.00,BKN,BKN,0.00,WeatherDisplay:10.37,2013-04-01 13:09:00,
2013-04-01 08:15:00,39.4,36.1,30.18,ENE,70,12.0,19.0,88,0.00,BKN,BKN,0.00,WeatherDisplay:10.37,2013-04-01 13:15:00,
2013-04-01 08:21:00,39.4,36.1,30.18,East,85,9.0,13.0,88,0.00,BKN,BKN,0.00,WeatherDisplay:10.37,2013-04-01 13:21:00,
2013-04-01 08:27:00,39.8,36.5,30.19,ENE,77,8.0,13.0,88,0.00,BKN,BKN,0.00,WeatherDisplay:10.37,2013-04-01 13:27:00,
2013-04-01 08:33:00,39.8,36.2,30.19,ENE,62,7.0,13.0,87,0.00,BKN,BKN,0.00,WeatherDisplay:10.37,2013-04-01 13:33:00,
2013-04-01 08:39:00,40.0,36.7,30.19,East,81,6.0,12.0,88,0.00,BKN,BKN,0.00,WeatherDisplay:10.37,2013-04-01 13:39:00,
2013-04-01 08:45:00,39.4,35.8,30.19,North,4,9.0,16.0,87,0.00,BKN,BKN,0.00,WeatherDisplay:10.37,2013-04-01 13:45:00,
2013-04-01 08:51:00,39.0,35.4,30.20,WNW,298,9.0,15.0,87,0.00,BKN,BKN,0.00,WeatherDisplay:10.37,2013-04-01 13:51:00,
2013-04-01 08:57:00,38.7,35.1,30.20,North,359,9.0,16.0,87,0.00,BKN,BKN,0.00,WeatherDisplay:10.37,2013-04-01 13:57:00,
2013-04-01 09:03:00,38.5,35.0,30.20,ESE,105,9.0,13.0,87,0.00,BKN,BKN,0.00,WeatherDisplay:10.37,2013-04-01 14:03:00,
2013-04-01 09:09:00,38.5,34.9,30.20,East,95,7.0,12.0,87,0.00,BKN,BKN,0.00,WeatherDisplay:10.37,2013-04-01 14:09:00,
2013-04-01 09:15:00,38.2,34.7,30.21,ENE,59,12.0,16.0,87,0.00,BKN,BKN,0.00,WeatherDisplay:10.37,2013-04-01 14:15:00,
2013-04-01 09:21:00,37.9,34.4,30.21,East,92,10.0,14.0,87,0.00,BKN,BKN,0.00,WeatherDisplay:10.37,2013-04-01 14:21:00,
2013-04-01 09:27:00,37.8,34.2,30.22,ENE,78,9.0,16.0,87,0.00,BKN,BKN,0.00,WeatherDisplay:10.37,2013-04-01 14:27:00,
2013-04-01 09:33:00,37.6,34.0,30.22,ENE,73,7.0,13.0,87,0.00,BKN,BKN,0.00,WeatherDisplay:10.37,2013-04-01 14:33:00,
2013-04-01 09:39:00,37.4,33.8,30.22,NE,56,9.0,14.0,87,0.00,BKN,BKN,0.00,WeatherDisplay:10.37,2013-04-01 14:39:00,
2013-04-01 09:45:00,37.6,33.8,30.22,ENE,57,10.0,14.0,86,0.00,BKN,BKN,0.00,WeatherDisplay:10.37,2013-04-01 14:45:00,
2013-04-01 09:51:00,37.6,33.8,30.21,NE,54,9.0,16.0,86,0.00,BKN,BKN,0.00,WeatherDisplay:10.37,2013-04-01 14:51:00,
2013-04-01 09:57:00,37.8,33.4,30.21,East,82,13.0,17.0,84,0.00,BKN,BKN,0.00,WeatherDisplay:10.37,2013-04-01 14:57:00,
2013-04-01 10:03:00,38.1,33.7,30.22,East,81,8.0,14.0,84,0.00,OVC,OVC,0.00,WeatherDisplay:10.37,2013-04-01 15:03:00,
2013-04-01 10:09:00,37.9,32.9,30.22,East,87,10.0,16.0,82,0.00,OVC,OVC,0.00,WeatherDisplay:10.37,2013-04-01 15:09:00,
2013-04-01 10:15:00,37.8,33.4,30.21,East,81,10.0,14.0,84,0.00,OVC,OVC,0.00,WeatherDisplay:10.37,2013-04-01 15:15:00,
2013-04-01 10:21:00,38.3,33.9,30.21,ENE,70,6.0,12.0,84,0.00,OVC,OVC,0.00,WeatherDisplay:10.37,2013-04-01 15:21:00,
2013-04-01 10:27:00,38.5,33.4,30.22,NE,54,8.0,10.0,82,0.00,OVC,OVC,0.00,WeatherDisplay:10.37,2013-04-01 15:27:00,
2013-04-01 10:33:00,38.2,33.2,30.22,ENE,78,10.0,14.0,82,0.00,OVC,OVC,0.00,WeatherDisplay:10.37,2013-04-01 15:33:00,
2013-04-01 10:39:00,38.2,33.8,30.23,East,83,7.0,10.0,84,0.00,OVC,OVC,0.00,WeatherDisplay:10.37,2013-04-01 15:39:00,
2013-04-01 10:45:00,38.2,33.8,30.23,East,84,7.0,9.0,84,0.00,OVC,OVC,0.00,WeatherDisplay:10.37,2013-04-01 15:45:00,
2013-04-01 10:51:00,38.3,32.9,30.23,ENE,70,9.0,15.0,81,0.00,OVC,OVC,0.00,WeatherDisplay:10.37,2013-04-01 15:51:00,
2013-04-01 10:57:00,38.3,32.6,30.23,East,84,13.0,17.0,80,0.00,OVC,OVC,0.00,WeatherDisplay:10.37,2013-04-01 15:57:00,
2013-04-01 11:03:00,38.8,33.2,30.25,East,85,7.0,12.0,80,0.00,OVC,OVC,0.00,WeatherDisplay:10.37,2013-04-01 16:03:00,
2013-04-01 11:09:00,39.1,33.4,30.25,ENE,76,7.0,12.0,80,0.00,OVC,OVC,0.00,WeatherDisplay:10.37,2013-04-01 16:09:00,
2013-04-01 11:15:00,39.2,33.5,30.25,ENE,63,7.0,8.0,80,0.00,OVC,OVC,0.00,WeatherDisplay:10.37,2013-04-01 16:15:00,
2013-04-01 11:21:00,39.1,33.1,30.25,North,353,6.0,9.0,79,0.00,OVC,OVC,0.00,WeatherDisplay:10.37,2013-04-01 16:21:00,
2013-04-01 11:27:00,38.3,32.6,30.26,North,354,7.0,12.0,80,0.00,OVC,OVC,0.00,WeatherDisplay:10.37,2013-04-01 16:27:00,
2013-04-01 11:33:00,37.8,32.1,30.26,NNE,12,6.0,9.0,80,0.00,OVC,OVC,0.00,WeatherDisplay:10.37,2013-04-01 16:33:00,
2013-04-01 11:39:00,37.6,31.9,30.29,NNE,24,5.0,8.0,80,0.00,OVC,OVC,0.00,WeatherDisplay:10.37,2013-04-01 16:39:00,
2013-04-01 11:45:00,37.2,32.2,30.29,ENE,73,9.0,14.0,82,0.00,OVC,OVC,0.00,WeatherDisplay:10.37,2013-04-01 16:45:00,
2013-04-01 11:51:00,36.4,32.6,30.27,East,82,13.0,20.0,86,0.00,OVC,OVC,0.00,WeatherDisplay:10.37,2013-04-01 16:51:00,
2013-04-01 11:57:00,35.9,33.0,30.27,ENE,64,6.0,9.0,89,0.00,OVC,OVC,0.00,WeatherDisplay:10.37,2013-04-01 16:57:00,
2013-04-01 12:03:00,35.8,33.4,30.28,ENE,68,6.0,12.0,91,0.00,-PL,-PL,0.00,WeatherDisplay:10.37,2013-04-01 17:03:00,
2013-04-01 12:09:00,35.8,33.7,30.28,ENE,73,7.0,14.0,92,0.00,-PL,-PL,0.01,WeatherDisplay:10.37,2013-04-01 17:09:00,
2013-04-01 12:15:00,36.0,33.9,30.26,ENE,72,7.0,10.0,92,0.01,-PL,-PL,0.02,WeatherDisplay:10.37,2013-04-01 17:15:00,
2013-04-01 12:21:00,36.2,34.1,30.26,ENE,59,7.0,16.0,92,0.00,-PL,-PL,0.02,WeatherDisplay:10.37,2013-04-01 17:21:00,
2013-04-01 12:27:00,36.2,34.1,30.26,East,90,10.0,16.0,92,0.00,-PL,-PL,0.02,WeatherDisplay:10.37,2013-04-01 17:27:00,
2013-04-01 12:33:00,36.1,34.3,30.26,East,92,8.0,18.0,93,0.01,-PL,-PL,0.03,WeatherDisplay:10.37,2013-04-01 17:33:00,
2013-04-01 12:39:00,35.8,34.2,30.24,East,84,9.0,16.0,94,0.01,-PL,-PL,0.05,WeatherDisplay:10.37,2013-04-01 17:39:00,
2013-04-01 12:45:00,35.6,34.0,30.24,ENE,65,5.0,10.0,94,0.00,-PL,-PL,0.06,WeatherDisplay:10.37,2013-04-01 17:45:00,
2013-04-01 12:51:00,35.6,34.0,30.26,NNE,33,6.0,12.0,94,0.00,-PL,-PL,0.07,WeatherDisplay:10.37,2013-04-01 17:51:00,
2013-04-01 12:57:00,35.8,34.2,30.26,ENE,76,5.0,8.0,94,0.01,-PL,-PL,0.08,WeatherDisplay:10.37,2013-04-01 17:57:00,
2013-04-01 13:03:00,35.8,34.2,30.25,East,81,8.0,12.0,94,0.00,-PL,-PL,0.08,WeatherDisplay:10.37,2013-04-01 18:03:00,
2013-04-01 13:09:00,35.8,34.2,30.25,ENE,73,7.0,12.0,94,0.01,-PL,-PL,0.09,WeatherDisplay:10.37,2013-04-01 18:09:00,
2013-04-01 13:15:00,35.8,34.2,30.24,East,85,8.0,13.0,94,0.00,-PL,-PL,0.09,WeatherDisplay:10.37,2013-04-01 18:15:00,
2013-04-01 13:21:00,35.8,34.2,30.24,ENE,70,7.0,13.0,94,0.00,-PL,-PL,0.10,WeatherDisplay:10.37,2013-04-01 18:21:00,
2013-04-01 13:27:00,35.6,34.0,30.24,East,83,9.0,15.0,94,0.01,-PL,-PL,0.11,WeatherDisplay:10.37,2013-04-01 18:27:00,
2013-04-01 13:33:00,35.8,34.2,30.24,East,90,5.0,10.0,94,0.01,-PL,-PL,0.12,WeatherDisplay:10.37,2013-04-01 18:33:00,
2013-04-01 13:39:00,35.8,33.9,30.24,NE,42,5.0,12.0,93,0.00,-PL,-PL,0.12,WeatherDisplay:10.37,2013-04-01 18:39:00,
2013-04-01 13:45:00,35.8,33.9,30.24,ENE,67,12.0,20.0,93,0.01,-PL,-PL,0.13,WeatherDisplay:10.37,2013-04-01 18:45:00,
2013-04-01 13:51:00,35.8,33.9,30.21,East,81,9.0,15.0,93,0.01,-PL,-PL,0.14,WeatherDisplay:10.37,2013-04-01 18:51:00,
2013-04-01 13:57:00,36.0,34.1,30.21,NE,52,7.0,12.0,93,0.00,-PL,-PL,0.14,WeatherDisplay:10.37,2013-04-01 18:57:00,
2013-04-01 14:03:00,36.2,34.6,30.22,NE,44,6.0,10.0,94,0.01,RA,RA,0.15,WeatherDisplay:10.37,2013-04-01 19:03:00,
2013-04-01 14:09:00,36.2,34.3,30.22,ENE,57,7.0,8.0,93,0.01,RA,RA,0.16,WeatherDisplay:10.37,2013-04-01 19:09:00,
2013-04-01 14:15:00,36.2,34.3,30.20,NE,37,8.0,14.0,93,0.01,RA,RA,0.17,WeatherDisplay:10.37,2013-04-01 19:15:00,
2013-04-01 14:21:00,36.4,34.3,30.20,NW,319,7.0,10.0,92,0.00,RA,RA,0.18,WeatherDisplay:10.37,2013-04-01 19:21:00,
2013-04-01 14:27:00,36.6,34.3,30.25,North,352,5.0,7.0,91,0.00,RA,RA,0.18,WeatherDisplay:10.37,2013-04-01 19:27:00,
2013-04-01 14:33:00,36.9,34.5,30.25,NNE,32,2.0,4.0,91,0.00,RA,RA,0.19,WeatherDisplay:10.37,2013-04-01 19:33:00,
2013-04-01 14:39:00,37.1,34.4,30.25,NNE,30,3.0,4.0,90,0.01,RA,RA,0.20,WeatherDisplay:10.37,2013-04-01 19:39:00,
2013-04-01 14:45:00,37.1,34.7,30.25,NNE,15,3.0,9.0,91,0.00,RA,RA,0.20,WeatherDisplay:10.37,2013-04-01 19:45:00,
2013-04-01 14:51:00,37.1,33.8,30.25,NE,55,5.0,7.0,88,0.00,OVC,OVC,0.20,WeatherDisplay:10.37,2013-04-01 19:51:00,
2013-04-01 14:57:00,37.1,35.0,30.25,NE,56,5.0,6.0,92,0.00,OVC,OVC,0.20,WeatherDisplay:10.37,2013-04-01 19:57:00,
2013-04-01 15:03:00,37.3,34.3,30.24,ENE,57,3.0,7.0,89,0.00,-RA,-RA,0.20,WeatherDisplay:10.37,2013-04-01 20:03:00,
2013-04-01 15:09:00,37.6,35.2,30.24,NNE,27,0.0,0.0,91,0.00,-RA,-RA,0.20,WeatherDisplay:10.37,2013-04-01 20:09:00,
2013-04-01 15:15:00,37.6,35.2,30.25,North,0,2.0,3.0,91,0.00,-RA,-RA,0.20,WeatherDisplay:10.37,2013-04-01 20:15:00,
2013-04-01 15:21:00,37.7,35.3,30.25,East,94,3.0,5.0,91,0.00,-RA,-RA,0.20,WeatherDisplay:10.37,2013-04-01 20:21:00,
2013-04-01 15:27:00,38.2,36.4,30.22,East,95,5.0,7.0,93,0.00,-RA,-RA,0.21,WeatherDisplay:10.37,2013-04-01 20:27:00,
2013-04-01 15:33:00,38.3,35.9,30.22,East,92,2.0,7.0,91,0.00,-RA,-RA,0.21,WeatherDisplay:10.37,2013-04-01 20:33:00,
2013-04-01 15:39:00,38.0,34.7,30.22,East,86,5.0,8.0,88,0.00,-RA,-RA,0.21,WeatherDisplay:10.37,2013-04-01 20:39:00,
2013-04-01 15:45:00,38.0,34.1,30.22,East,83,5.0,8.0,86,0.00,-RA,-RA,0.21,WeatherDisplay:10.37,2013-04-01 20:45:00,
2013-04-01 15:51:00,38.0,34.4,30.23,East,94,6.0,7.0,87,0.00,-RA,-RA,0.21,WeatherDisplay:10.37,2013-04-01 20:51:00,
2013-04-01 15:57:00,37.8,33.9,30.23,ENE,69,5.0,7.0,86,0.00,-RA,-RA,0.21,WeatherDisplay:10.37,2013-04-01 20:57:00,
2013-04-01 16:03:00,37.8,34.2,30.23,NE,55,3.0,8.0,87,0.00,-RA,-RA,0.21,WeatherDisplay:10.37,2013-04-01 21:03:00,
2013-04-01 16:09:00,38.0,34.4,30.23,ENE,73,5.0,6.0,87,0.00,-RA,-RA,0.21,WeatherDisplay:10.37,2013-04-01 21:09:00,
2013-04-01 16:15:00,38.0,33.6,30.23,East,101,3.0,6.0,84,0.00,-RA,-RA,0.21,WeatherDisplay:10.37,2013-04-01 21:15:00,
2013-04-01 16:21:00,38.0,33.6,30.23,East,97,5.0,7.0,84,0.00,-RA,-RA,0.21,WeatherDisplay:10.37,2013-04-01 21:21:00,
2013-04-01 16:27:00,38.0,33.0,30.22,East,82,6.0,9.0,82,0.00,-RA,-RA,0.21,WeatherDisplay:10.37,2013-04-01 21:27:00,
2013-04-01 16:33:00,38.2,32.5,30.22,ENE,75,5.0,10.0,80,0.00,-RA,-RA,0.21,WeatherDisplay:10.37,2013-04-01 21:33:00,
2013-04-01 16:39:00,38.3,32.3,30.22,ENE,69,5.0,9.0,79,0.00,-RA,-RA,0.21,WeatherDisplay:10.37,2013-04-01 21:39:00,
2013-04-01 16:45:00,38.5,31.9,30.22,East,81,9.0,13.0,77,0.00,-RA,-RA,0.21,WeatherDisplay:10.37,2013-04-01 21:45:00,
2013-04-01 16:51:00,38.7,32.8,30.21,East,81,2.0,6.0,79,0.00,-RA,-RA,0.21,WeatherDisplay:10.37,2013-04-01 21:51:00,
2013-04-01 16:57:00,38.7,31.7,30.21,ENE,73,6.0,8.0,76,0.00,-RA,-RA,0.21,WeatherDisplay:10.37,2013-04-01 21:57:00,
2013-04-01 17:03:00,38.7,30.4,30.22,East,83,7.0,14.0,72,0.00,-RA,-RA,0.21,WeatherDisplay:10.37,2013-04-01 22:03:00,
2013-04-01 17:09:00,38.5,29.5,30.22,East,89,6.0,12.0,70,0.00,-RA,-RA,0.21,WeatherDisplay:10.37,2013-04-01 22:09:00,
2013-04-01 17:15:00,38.8,30.5,30.21,East,94,7.0,13.0,72,0.00,-RA,-RA,0.21,WeatherDisplay:10.37,2013-04-01 22:15:00,
2013-04-01 17:21:00,38.9,29.2,30.21,East,86,8.0,12.0,68,0.00,-RA,-RA,0.21,WeatherDisplay:10.37,2013-04-01 22:21:00,
2013-04-01 17:27:00,39.1,29.4,30.20,ENE,74,8.0,9.0,68,0.00,-RA,-RA,0.21,WeatherDisplay:10.37,2013-04-01 22:27:00,
2013-04-01 17:33:00,39.4,28.6,30.20,East,82,9.0,12.0,65,0.00,-RA,-RA,0.21,WeatherDisplay:10.37,2013-04-01 22:33:00,
2013-04-01 17:39:00,39.2,28.8,30.21,East,81,6.0,10.0,66,0.00,-RA,-RA,0.21,WeatherDisplay:10.37,2013-04-01 22:39:00,
2013-04-01 17:45:00,39.2,28.8,30.21,ENE,76,6.0,10.0,66,0.00,-RA,-RA,0.21,WeatherDisplay:10.37,2013-04-01 22:45:00,
2013-04-01 17:51:00,39.2,28.8,30.19,ENE,74,7.0,12.0,66,0.00,-RA,-RA,0.21,WeatherDisplay:10.37,2013-04-01 22:51:00,
2013-04-01 17:57:00,39.2,28.4,30.19,East,91,7.0,13.0,65,0.00,-RA,-RA,0.21,WeatherDisplay:10.37,2013-04-01 22:57:00,
2013-04-01 18:03:00,39.2,28.0,30.19,East,90,8.0,12.0,64,0.00,OVC,OVC,0.21,WeatherDisplay:10.37,2013-04-01 23:03:00,
2013-04-01 18:09:00,39.1,27.9,30.19,East,86,7.0,10.0,64,0.00,OVC,OVC,0.21,WeatherDisplay:10.37,2013-04-01 23:09:00,
2013-04-01 18:15:00,39.1,27.9,30.20,East,82,7.0,12.0,64,0.00,OVC,OVC,0.21,WeatherDisplay:10.37,2013-04-01 23:15:00,
2013-04-01 18:21:00,39.1,27.5,30.20,ENE,75,7.0,10.0,63,0.00,OVC,OVC,0.21,WeatherDisplay:10.37,2013-04-01 23:21:00,
2013-04-01 18:27:00,39.1,27.9,30.19,ENE,77,5.0,7.0,64,0.00,OVC,OVC,0.21,WeatherDisplay:10.37,2013-04-01 23:27:00,
2013-04-01 18:33:00,39.1,27.9,30.19,ENE,73,3.0,7.0,64,0.00,OVC,OVC,0.21,WeatherDisplay:10.37,2013-04-01 23:33:00,
2013-04-01 18:39:00,39.1,27.9,30.20,East,80,8.0,10.0,64,0.00,OVC,OVC,0.21,WeatherDisplay:10.37,2013-04-01 23:39:00,
2013-04-01 18:45:00,39.1,27.9,30.20,ENE,71,5.0,7.0,64,0.00,OVC,OVC,0.21,WeatherDisplay:10.37,2013-04-01 23:45:00,
2013-04-01 18:51:00,39.1,27.5,30.20,ENE,68,7.0,9.0,63,0.00,OVC,OVC,0.21,WeatherDisplay:10.37,2013-04-01 23:51:00,
2013-04-01 18:57:00,39.1,27.9,30.20,East,83,7.0,8.0,64,0.00,OVC,OVC,0.21,WeatherDisplay:10.37,2013-04-01 23:57:00,
2013-04-01 19:03:00,39.1,27.9,30.19,ENE,77,7.0,9.0,64,0.00,OVC,OVC,0.21,WeatherDisplay:10.37,2013-04-02 00:03:00,
2013-04-01 19:09:00,39.1,27.5,30.19,East,87,5.0,7.0,63,0.00,OVC,OVC,0.21,WeatherDisplay:10.37,2013-04-02 00:09:00,
2013-04-01 19:15:00,39.1,27.9,30.21,East,81,3.0,4.0,64,0.00,OVC,OVC,0.21,WeatherDisplay:10.37,2013-04-02 00:15:00,
2013-04-01 19:21:00,39.1,28.3,30.21,East,80,3.0,4.0,65,0.00,OVC,OVC,0.21,WeatherDisplay:10.37,2013-04-02 00:21:00,
2013-04-01 19:27:00,39.1,27.9,30.20,East,85,5.0,7.0,64,0.00,OVC,OVC,0.21,WeatherDisplay:10.37,2013-04-02 00:27:00,
2013-04-01 19:33:00,39.1,27.9,30.20,East,83,3.0,7.0,64,0.00,OVC,OVC,0.21,WeatherDisplay:10.37,2013-04-02 00:33:00,
2013-04-01 19:39:00,39.1,28.3,30.20,ENE,74,3.0,4.0,65,0.00,OVC,OVC,0.21,WeatherDisplay:10.37,2013-04-02 00:39:00,
2013-04-01 19:45:00,39.1,28.3,30.20,ENE,77,3.0,7.0,65,0.00,OVC,OVC,0.21,WeatherDisplay:10.37,2013-04-02 00:45:00,
2013-04-01 19:51:00,39.1,29.0,30.20,ENE,70,0.0,2.0,67,0.00,OVC,OVC,0.21,WeatherDisplay:10.37,2013-04-02 00:51:00,
2013-04-01 19:57:00,39.1,29.0,30.20,ENE,74,1.0,2.0,67,0.00,OVC,OVC,0.21,WeatherDisplay:10.37,2013-04-02 00:57:00,
2013-04-01 20:03:00,39.1,29.0,30.20,East,89,1.0,3.0,67,0.00,OVC,OVC,0.21,WeatherDisplay:10.37,2013-04-02 01:03:00,
2013-04-01 20:09:00,39.1,29.0,30.20,East,84,3.0,4.0,67,0.00,OVC,OVC,0.21,WeatherDisplay:10.37,2013-04-02 01:09:00,
2013-04-01 20:15:00,39.1,29.0,30.20,ENE,62,3.0,4.0,67,0.00,OVC,OVC,0.21,WeatherDisplay:10.37,2013-04-02 01:15:00,
2013-04-01 20:21:00,39.1,29.0,30.20,East,82,5.0,7.0,67,0.00,OVC,OVC,0.21,WeatherDisplay:10.37,2013-04-02 01:21:00,
2013-04-01 20:27:00,39.1,29.0,30.19,ENE,68,3.0,5.0,67,0.00,OVC,OVC,0.21,WeatherDisplay:10.37,2013-04-02 01:27:00,
2013-04-01 20:33:00,39.1,28.3,30.19,ENE,64,3.0,7.0,65,0.00,OVC,OVC,0.21,WeatherDisplay:10.37,2013-04-02 01:33:00,
2013-04-01 20:39:00,39.1,27.9,30.21,ENE,71,5.0,7.0,64,0.00,OVC,OVC,0.21,WeatherDisplay:10.37,2013-04-02 01:39:00,
2013-04-01 20:45:00,39.1,28.3,30.21,East,84,1.0,4.0,65,0.00,OVC,OVC,0.21,WeatherDisplay:10.37,2013-04-02 01:45:00,
2013-04-01 20:51:00,39.1,27.9,30.21,East,93,3.0,7.0,64,0.00,OVC,OVC,0.21,WeatherDisplay:10.37,2013-04-02 01:51:00,
2013-04-01 20:57:00,39.1,28.3,30.21,East,85,5.0,7.0,65,0.00,OVC,OVC,0.21,WeatherDisplay:10.37,2013-04-02 01:57:00,
2013-04-01 21:03:00,39.1,28.3,30.21,ENE,73,0.0,3.0,65,0.00,OVC,OVC,0.21,WeatherDisplay:10.37,2013-04-02 02:03:00,
2013-04-01 21:09:00,39.2,28.4,30.21,ENE,78,3.0,7.0,65,0.00,OVC,OVC,0.21,WeatherDisplay:10.37,2013-04-02 02:09:00,
2013-04-01 21:15:00,39.2,28.8,30.22,ENE,59,3.0,7.0,66,0.00,OVC,OVC,0.21,WeatherDisplay:10.37,2013-04-02 02:15:00,
2013-04-01 21:21:00,39.2,28.4,30.22,ENE,60,3.0,4.0,65,0.00,OVC,OVC,0.21,WeatherDisplay:10.37,2013-04-02 02:21:00,
2013-04-01 21:27:00,39.4,28.6,30.22,East,80,2.0,3.0,65,0.00,OVC,OVC,0.21,WeatherDisplay:10.37,2013-04-02 02:27:00,
2013-04-01 21:33:00,39.4,28.6,30.22,ENE,75,6.0,9.0,65,0.00,OVC,OVC,0.21,WeatherDisplay:10.37,2013-04-02 02:33:00,
2013-04-01 21:39:00,39.4,28.2,30.22,ENE,64,3.0,8.0,64,0.00,OVC,OVC,0.21,WeatherDisplay:10.37,2013-04-02 02:39:00,
2013-04-01 21:45:00,39.4,27.9,30.22,East,91,6.0,9.0,63,0.00,OVC,OVC,0.21,WeatherDisplay:10.37,2013-04-02 02:45:00,
2013-04-01 21:51:00,39.6,28.4,30.24,East,88,3.0,6.0,64,0.00,OVC,OVC,0.21,WeatherDisplay:10.37,2013-04-02 02:51:00,
2013-04-01 21:57:00,39.6,28.0,30.24,East,101,6.0,7.0,63,0.00,OVC,OVC,0.21,WeatherDisplay:10.37,2013-04-02 02:57:00,
2013-04-01 22:03:00,39.6,28.4,30.23,East,81,5.0,9.0,64,0.00,OVC,OVC,0.21,WeatherDisplay:10.37,2013-04-02 03:03:00,
2013-04-01 22:09:00,39.6,28.0,30.23,East,95,6.0,9.0,63,0.00,OVC,OVC,0.21,WeatherDisplay:10.37,2013-04-02 03:09:00,
2013-04-01 22:15:00,39.8,28.2,30.23,East,97,6.0,9.0,63,0.00,OVC,OVC,0.21,WeatherDisplay:10.37,2013-04-02 03:15:00,
2013-04-01 22:21:00,39.8,27.8,30.23,East,89,6.0,7.0,62,0.00,OVC,OVC,0.21,WeatherDisplay:10.37,2013-04-02 03:21:00,
2013-04-01 22:27:00,39.8,27.0,30.23,East,93,5.0,9.0,60,0.00,OVC,OVC,0.21,WeatherDisplay:10.37,2013-04-02 03:27:00,
2013-04-01 22:33:00,39.8,26.2,30.23,East,81,6.0,8.0,58,0.00,OVC,OVC,0.21,WeatherDisplay:10.37,2013-04-02 03:33:00,
2013-04-01 22:39:00,39.8,25.8,30.22,East,81,5.0,7.0,57,0.00,OVC,OVC,0.21,WeatherDisplay:10.37,2013-04-02 03:39:00,
2013-04-01 22:45:00,40.0,25.5,30.22,East,91,8.0,10.0,56,0.00,OVC,OVC,0.21,WeatherDisplay:10.37,2013-04-02 03:45:00,
2013-04-01 22:51:00,40.0,25.5,30.23,East,98,10.0,13.0,56,0.00,OVC,OVC,0.21,WeatherDisplay:10.37,2013-04-02 03:51:00,
2013-04-01 22:57:00,40.0,25.9,30.23,East,90,7.0,13.0,57,0.00,OVC,OVC,0.21,WeatherDisplay:10.37,2013-04-02 03:57:00,
2013-04-01 23:00:00,40.0,25.5,30.22,ENE,78,7.0,10.0,56,0.00,OVC,OVC,0.21,WeatherDisplay:10.37,2013-04-02 04:00:00,
2013-04-01 23:03:00,40.0,25.1,30.22,East,84,10.0,12.0,55,0.00,OVC,OVC,0.21,WeatherDisplay:10.37,2013-04-02 04:03:00,
2013-04-01 23:06:00,40.0,25.5,30.22,ENE,75,8.0,12.0,56,0.00,OVC,OVC,0.21,WeatherDisplay:10.37,2013-04-02 04:06:00,
2013-04-01 23:12:00,40.0,25.9,30.22,East,81,8.0,14.0,57,0.00,OVC,OVC,0.21,WeatherDisplay:10.37,2013-04-02 04:12:00,
2013-04-01 23:15:00,40.0,25.5,30.22,East,87,9.0,10.0,56,0.00,OVC,OVC,0.21,WeatherDisplay:10.37,2013-04-02 04:15:00,
2013-04-01 23:21:00,40.0,25.5,30.22,ENE,70,9.0,13.0,56,0.00,OVC,OVC,0.21,WeatherDisplay:10.37,2013-04-02 04:21:00,
2013-04-01 23:27:00,40.0,25.5,30.22,East,85,9.0,15.0,56,0.00,OVC,OVC,0.21,WeatherDisplay:10.37,2013-04-02 04:27:00,
2013-04-01 23:33:00,40.0,25.5,30.22,ENE,76,5.0,10.0,56,0.00,OVC,OVC,0.21,WeatherDisplay:10.37,2013-04-02 04:33:00,
2013-04-01 23:39:00,40.0,25.9,30.22,ENE,74,6.0,7.0,57,0.00,OVC,OVC,0.21,WeatherDisplay:10.37,2013-04-02 04:39:00,
2013-04-01 23:45:00,39.8,26.2,30.22,East,86,6.0,9.0,58,0.00,OVC,OVC,0.21,WeatherDisplay:10.37,2013-04-02 04:45:00,
2013-04-01 23:51:00,39.8,26.6,30.22,East,91,5.0,7.0,59,0.00,OVC,OVC,0.21,WeatherDisplay:10.37,2013-04-02 04:51:00,
2013-04-01 23:57:00,39.6,25.6,30.22,East,88,9.0,16.0,57,0.00,OVC,OVC,0.21,WeatherDisplay:10.37,2013-04-02 04:57:00,